Nearby METAR Reports

Meteorological Terminal Air Report (METAR)

K3I2 - Pt Pleasant, West Virginia, USA
Distance from station: S 11mi, 18km
Updated: Tue, 26-May-2020 4:55pm EDT
Clear
Clear
 Wind from E
Wind: E 6 mph , 9 km/h
Temperature: 88°F , 31°C
Heat Index: 90°F , 32°C
Dew Point: 64°F , 18°C
Humidity: 46%
Barometer: 30.05 inHg , 1017.6 hPa
Clouds: Clear
Visibility: 10 miles , 16 km
2020/05/26 20:55 K3I2 262055Z AUTO 08005KT 10SM CLR 31/18 A3005 RMK AO2 T03090181
KUNI - Athens, Ohio, USA
Distance from station: NW 13mi, 21km
Updated: Tue, 26-May-2020 4:35pm EDT
Clear
Clear
 Wind from E
Wind: E 8 mph , 13 km/h
Temperature: 86°F , 30°C
Heat Index: 85°F , 29°C
Dew Point: 59°F , 15°C
Humidity: 40%
Barometer: 30.04 inHg , 1017.3 hPa
Clouds: Clear
Visibility: 10 miles , 16 km
2020/05/26 20:35 KUNI 262035Z AUTO 10007KT 10SM CLR 30/15 A3004 RMK AO2 T03030145
 
KPKB - Parkersburg, West Virginia, USA
Distance from station: ENE 40mi, 65km
Updated: Tue, 26-May-2020 3:53pm EDT
Clear
Clear
 Wind from E
Wind: E 8 mph , 13 km/h
Temperature: 88°F , 31°C
Dew Point: 59°F , 15°C
Humidity: 38%
Barometer: 30.05 inHg , 1017.6 hPa
Clouds: Clear
Visibility: 10 miles , 16 km
2020/05/26 19:53 KPKB 261953Z 10007KT 10SM CLR 31/15 A3005 RMK AO2 SLP169 T03060150
KCRW - Charleston, West Virginia, USA
Distance from station: SSE 55mi, 88km
Updated: Tue, 26-May-2020 4:54pm EDT
Mostly cloudy
Mostly cloudy
 Wind from SE
Wind: SE 9 mph , 15 km/h
Temperature: 82°F , 28°C
Heat Index: 82°F , 28°C
Dew Point: 61°F , 16°C
Humidity: 48%
Barometer: 30.05 inHg , 1017.6 hPa
Clouds: Mostly cloudy
Visibility: 10 miles , 16 km
Cloud details: Partly cloudy 5000 ft
Mostly cloudy 25000 ft
2020/05/26 20:54 KCRW 262054Z 14008KT 10SM SCT050 BKN250 28/16 A3005 RMK AO2 SLP168 T02780156 58013
 
KHTS - Huntington, West Virginia, USA
Distance from station: SSW 55mi, 89km
Updated: Tue, 26-May-2020 4:51pm EDT
Few Clouds
Few Clouds
 Wind from E
Wind: E 7 mph , 11 km/h
Temperature: 84°F , 29°C
Heat Index: 85°F , 29°C
Dew Point: 64°F , 18°C
Humidity: 51%
Barometer: 30.03 inHg , 1016.9 hPa
Clouds: Few Clouds
Visibility: 10 miles , 16 km
Cloud details: Few Clouds 4500 ft
2020/05/26 20:51 KHTS 262051Z 10006KT 10SM FEW045 29/18 A3003 RMK AO2 SLP159 T02890183 57014
KLHQ - Lancaster, Ohio, USA
Distance from station: NW 56mi, 91km
Updated: Tue, 26-May-2020 4:53pm EDT
Few Clouds
Few Clouds
 Wind from ESE
Wind: ESE 10 mph , 17 km/h
Temperature: 86°F , 30°C
Heat Index: 87°F , 31°C
Dew Point: 63°F , 17°C
Humidity: 46%
Barometer: 30.03 inHg , 1016.9 hPa
Clouds: Few Clouds
Visibility: 10 miles , 16 km
Cloud details: Few Clouds 7000 ft
2020/05/26 20:53 KLHQ 262053Z AUTO 11009KT 10SM FEW070 30/17 A3003 RMK AO2 SLP160 T03000172 56018
 
KZZV - Zanesville, Ohio, USA
Distance from station: N 61mi, 99km
Updated: Tue, 26-May-2020 4:53pm EDT
Clear
Clear
 Wind from E
Wind: E 12 mph , 19 km/h
Temperature: 88°F , 31°C
Heat Index: 88°F , 31°C
Dew Point: 61°F , 16°C
Humidity: 40%
Barometer: 30.04 inHg , 1017.3 hPa
Clouds: Clear
Visibility: 10 miles , 16 km
2020/05/26 20:53 KZZV 262053Z AUTO 10010KT 10SM CLR 31/16 A3004 RMK AO2 SLP165 T03110161 56016
KLCK - Rickenbacker Ang, Ohio, USA
Distance from station: NW 68mi, 110km
Updated: Tue, 26-May-2020 3:55pm EDT
Partly cloudy
Partly cloudy
 Wind from E
Wind: E 8 mph , 13 km/h
Temperature: 86°F , 30°C
Heat Index: 88°F , 31°C
Dew Point: 64°F , 18°C
Humidity: 49%
Barometer: 30.02 inHg , 1016.6 hPa
Clouds: Partly cloudy
Cloud details: Partly cloudy 6000 ft
Partly cloudy 7500 ft
Partly cloudy 8000 ft
2020/05/26 19:55 KLCK 261955Z AUTO 08007KT SCT060 SCT075 SCT080 30/18 A3002 RMK AO2 T02960177
 
KVTA - Newark, Ohio, USA
Distance from station: NNW 68mi, 110km
Updated: Tue, 26-May-2020 4:54pm EDT
Clear
Clear
 Wind from E
Wind: E 14 mph , 22 km/h, Gust: 18 mph , 30 km/h
Temperature: 91°F , 33°C
Dew Point: 57°F , 14°C
Humidity: 32%
Barometer: 30.02 inHg , 1016.6 hPa
Clouds: Clear
Visibility: 10 miles , 16 km
2020/05/26 20:54 KVTA 262054Z AUTO 10012G16KT 10SM CLR 33/14 A3002 RMK AO2 SLP158 T03280144 56016